Weather at Hendrik Van Eck Airport

Public forecast

Using degrees Celsius for public forecast. Weather courtesy of forecast.io.

Closest aviation weather report (METAR) to Hendrik Van Eck Airport

Report is more than 6 hours old.

Closest report is Hoedspruit Air Force Base Airport, 26.6 nm (49.2 km) SSW.

2022/11/14 15:00 (retrieved 2 years ago)

FAHS 141500Z AUTO 15011G22KT //// // ////// 25/16 Q1021

Closest aviation forecast (TAF) to Hendrik Van Eck Airport

Forecast is more than 12 hours old.

Closest forecast is Maputo Airport, 141.9 nm (262.8 km) SSE.

2023/02/22 18:16 (retrieved 1 year ago)

TAF FQMA 221600Z 2218/2324 15010KT 9999 SCT015 BKN020 TX30/2313Z TN21/2303Z BECMG 2300/2302 24008KT SCT020 BECMG 2312/2314 15014KT BECMG 2319/2321 25008KT FEW025